createdAt,value
2023-02-04T00:00:40.221Z,0.00
2023-02-04T00:01:40.227Z,0.00
2023-02-04T00:02:40.188Z,0.00
2023-02-04T00:03:40.177Z,0.00
2023-02-04T00:04:40.144Z,0.00
2023-02-04T00:05:40.209Z,0.00
2023-02-04T00:06:40.161Z,0.00
2023-02-04T00:07:41.465Z,0.00
2023-02-04T00:08:40.087Z,0.00
2023-02-04T00:09:40.091Z,0.00
2023-02-04T00:10:40.069Z,0.00
2023-02-04T00:11:40.104Z,0.00
2023-02-04T00:12:40.029Z,0.00
2023-02-04T00:13:40.080Z,0.00
2023-02-04T00:14:40.085Z,0.00
2023-02-04T00:15:40.120Z,0.00
2023-02-04T00:16:39.998Z,0.00
2023-02-04T00:17:40.028Z,0.00
2023-02-04T00:18:40.014Z,0.00
2023-02-04T00:19:40.328Z,0.00
2023-02-04T00:20:40.029Z,0.00
2023-02-04T00:21:40.038Z,0.00
2023-02-04T00:22:39.935Z,0.00
2023-02-04T00:23:40.584Z,0.00
2023-02-04T00:24:39.985Z,0.00
2023-02-04T00:25:40.983Z,0.00
2023-02-04T00:26:39.904Z,0.00
2023-02-04T00:27:40.060Z,0.00
2023-02-04T00:28:39.918Z,0.00
2023-02-04T00:29:39.885Z,0.00
2023-02-04T00:30:39.939Z,0.00
2023-02-04T00:31:39.937Z,0.00
2023-02-04T00:32:39.842Z,0.00
2023-02-04T00:33:39.848Z,0.00
2023-02-04T00:34:39.820Z,0.00
2023-02-04T00:35:39.865Z,0.00
2023-02-04T00:36:39.929Z,0.00
2023-02-04T00:37:39.774Z,0.00
2023-02-04T00:38:39.768Z,0.00
2023-02-04T00:39:39.793Z,0.00
2023-02-04T00:40:39.795Z,0.00
2023-02-04T00:41:39.770Z,0.00
2023-02-04T00:42:39.745Z,0.00
2023-02-04T00:43:39.780Z,0.00
2023-02-04T00:44:39.717Z,0.00
2023-02-04T00:45:39.775Z,0.00
2023-02-04T00:46:39.639Z,0.00
2023-02-04T00:47:39.701Z,0.00
2023-02-04T00:48:39.712Z,0.00
2023-02-04T00:49:39.656Z,0.00
2023-02-04T00:50:39.762Z,0.00
2023-02-04T00:51:39.681Z,0.00
2023-02-04T00:52:39.630Z,0.00
2023-02-04T00:53:39.646Z,0.00
2023-02-04T00:54:39.619Z,0.00
2023-02-04T00:55:39.591Z,0.00
2023-02-04T00:56:39.601Z,0.00
2023-02-04T00:57:39.608Z,0.00
2023-02-04T00:58:39.546Z,0.00
2023-02-04T00:59:39.515Z,0.00
2023-02-04T01:00:40.127Z,0.00
2023-02-04T01:01:39.499Z,0.00
2023-02-04T01:02:39.668Z,0.00
2023-02-04T01:03:39.507Z,0.00
2023-02-04T01:04:39.556Z,0.00
2023-02-04T01:05:39.533Z,0.00
2023-02-04T01:06:39.527Z,0.00
2023-02-04T01:07:39.534Z,0.00
2023-02-04T01:08:39.478Z,0.00
2023-02-04T01:09:39.417Z,0.00
2023-02-04T01:10:39.527Z,0.00
2023-02-04T01:11:39.433Z,0.00
2023-02-04T01:12:39.399Z,0.00
2023-02-04T01:13:39.384Z,0.00
2023-02-04T01:14:39.416Z,0.00
2023-02-04T01:15:39.407Z,0.00
2023-02-04T01:16:39.521Z,0.00
2023-02-04T01:17:39.518Z,0.00
2023-02-04T01:18:39.377Z,0.00
2023-02-04T01:19:39.349Z,0.00
2023-02-04T01:20:40.205Z,0.00
2023-02-04T01:21:40.962Z,0.00
2023-02-04T01:22:39.349Z,0.00
2023-02-04T01:23:39.343Z,0.00
2023-02-04T01:24:39.346Z,0.00
2023-02-04T01:25:39.357Z,0.00
2023-02-04T01:26:39.270Z,0.00
2023-02-04T01:27:39.365Z,0.00
2023-02-04T01:28:39.250Z,0.00
2023-02-04T01:29:39.195Z,0.00
2023-02-04T01:30:39.303Z,0.00
2023-02-04T01:31:39.290Z,0.00
2023-02-04T01:32:39.197Z,0.00
2023-02-04T01:33:39.270Z,0.00
2023-02-04T01:34:39.180Z,0.00
2023-02-04T01:35:39.189Z,0.00
2023-02-04T01:36:39.207Z,0.00
2023-02-04T01:37:39.244Z,0.00
2023-02-04T01:38:39.419Z,0.00
2023-02-04T01:39:39.129Z,0.00
2023-02-04T01:40:39.121Z,0.00
2023-02-04T01:41:39.111Z,0.00
2023-02-04T01:42:39.082Z,0.00
2023-02-04T01:43:39.168Z,0.00
2023-02-04T01:44:39.074Z,0.00
2023-02-04T01:45:39.070Z,0.00
2023-02-04T01:46:39.098Z,0.00
2023-02-04T01:47:39.062Z,0.00
2023-02-04T01:48:38.999Z,0.00
2023-02-04T01:49:39.112Z,0.00
2023-02-04T01:50:39.012Z,0.00
2023-02-04T01:51:38.991Z,0.00
2023-02-04T01:52:38.923Z,1.00
2023-02-04T01:53:39.007Z,1.00
2023-02-04T01:54:38.908Z,1.00
2023-02-04T01:55:39.162Z,1.00
2023-02-04T01:56:38.911Z,1.00
2023-02-04T01:57:38.859Z,1.00
2023-02-04T01:58:38.867Z,1.00
2023-02-04T01:59:38.881Z,1.00
2023-02-04T02:00:38.998Z,1.00
2023-02-04T02:01:38.891Z,1.00
2023-02-04T02:02:38.865Z,1.00
2023-02-04T02:03:38.862Z,1.00
2023-02-04T02:04:38.811Z,1.00
2023-02-04T02:05:39.009Z,1.00
2023-02-04T02:06:39.089Z,1.00
2023-02-04T02:07:38.819Z,1.00
2023-02-04T02:08:38.737Z,1.00
2023-02-04T02:09:38.734Z,1.00
2023-02-04T02:10:38.801Z,1.00
2023-02-04T02:11:38.754Z,1.00
2023-02-04T02:12:38.769Z,1.00
2023-02-04T02:13:38.765Z,1.00
2023-02-04T02:14:38.672Z,1.00
2023-02-04T02:15:38.687Z,1.00
2023-02-04T02:16:38.809Z,1.00
2023-02-04T02:17:38.678Z,1.00
2023-02-04T02:18:38.699Z,1.00
2023-02-04T02:19:38.709Z,1.00
2023-02-04T02:20:38.713Z,1.00
2023-02-04T02:21:38.616Z,1.00
2023-02-04T02:22:38.624Z,1.00
2023-02-04T02:23:38.733Z,1.00
2023-02-04T02:24:40.135Z,1.00
2023-02-04T02:25:38.597Z,1.00
2023-02-04T02:26:38.546Z,1.00
2023-02-04T02:27:38.571Z,1.00
2023-02-04T02:28:38.560Z,1.00
2023-02-04T02:29:38.603Z,1.00
2023-02-04T02:30:38.666Z,1.00
2023-02-04T02:31:38.683Z,1.00
2023-02-04T02:32:38.483Z,1.00
2023-02-04T02:33:38.584Z,1.00
2023-02-04T02:34:38.497Z,1.00
2023-02-04T02:35:38.563Z,1.00
2023-02-04T02:36:38.470Z,1.00
2023-02-04T02:37:38.414Z,1.00
2023-02-04T02:38:38.483Z,1.00
2023-02-04T02:39:38.455Z,1.00
2023-02-04T02:40:38.434Z,1.00
2023-02-04T02:41:38.449Z,1.00
2023-02-04T02:42:38.409Z,1.00
2023-02-04T02:43:38.629Z,1.00
2023-02-04T02:44:38.419Z,1.00
2023-02-04T02:45:38.429Z,1.00
2023-02-04T02:46:38.432Z,1.00
2023-02-04T02:47:38.378Z,1.00
2023-02-04T02:48:38.369Z,1.00
2023-02-04T02:49:38.284Z,1.00
2023-02-04T02:50:38.352Z,1.00
2023-02-04T02:51:38.296Z,1.00
2023-02-04T02:52:38.384Z,1.00
2023-02-04T02:53:38.581Z,1.00
2023-02-04T02:54:38.317Z,1.00
2023-02-04T02:55:38.227Z,1.00
2023-02-04T02:56:38.296Z,1.00
2023-02-04T02:57:38.849Z,1.00
2023-02-04T02:58:38.240Z,1.00
2023-02-04T02:59:38.420Z,1.00
2023-02-04T03:00:38.151Z,1.00
2023-02-04T03:01:38.221Z,1.00
2023-02-04T03:02:38.261Z,1.00
2023-02-04T03:03:38.232Z,1.00
2023-02-04T03:04:38.249Z,1.00
2023-02-04T03:05:38.184Z,1.00
2023-02-04T03:06:38.155Z,1.00
2023-02-04T03:07:38.108Z,1.00
2023-02-04T03:08:38.095Z,1.00
2023-02-04T03:09:38.106Z,1.00
2023-02-04T03:10:38.112Z,1.00
2023-02-04T03:11:38.128Z,1.00
2023-02-04T03:12:38.072Z,1.00
2023-02-04T03:13:38.111Z,1.00
2023-02-04T03:14:38.083Z,1.00
2023-02-04T03:15:38.159Z,1.00
2023-02-04T03:16:38.053Z,1.00
2023-02-04T03:17:38.537Z,1.00
2023-02-04T03:18:38.012Z,1.00
2023-02-04T03:19:37.995Z,1.00
2023-02-04T03:20:38.227Z,1.00
2023-02-04T03:21:38.044Z,1.00
2023-02-04T03:22:37.938Z,1.00
2023-02-04T03:23:38.044Z,1.00
2023-02-04T03:24:37.927Z,1.00
2023-02-04T03:25:38.006Z,1.00
2023-02-04T03:26:37.966Z,1.00
2023-02-04T03:27:38.038Z,0.00
2023-02-04T03:28:38.176Z,1.00
2023-02-04T03:29:37.939Z,1.00
2023-02-04T03:30:37.967Z,1.00
2023-02-04T03:31:38.010Z,1.00
2023-02-04T03:32:38.079Z,1.00
2023-02-04T03:33:37.939Z,1.00
2023-02-04T03:34:37.816Z,1.00
2023-02-04T03:35:37.852Z,1.00
2023-02-04T03:36:37.829Z,1.00
2023-02-04T03:37:37.805Z,1.00
2023-02-04T03:38:37.837Z,1.00
2023-02-04T03:39:37.822Z,1.00
2023-02-04T03:40:37.753Z,1.00
2023-02-04T03:41:37.733Z,1.00
2023-02-04T03:42:37.701Z,1.00
2023-02-04T03:43:37.773Z,1.00
2023-02-04T03:44:37.751Z,1.00
2023-02-04T03:45:45.305Z,1.00
2023-02-04T03:46:37.768Z,1.00
2023-02-04T03:47:37.677Z,1.00
2023-02-04T03:48:37.757Z,1.00
2023-02-04T03:49:37.706Z,1.00
2023-02-04T03:50:37.751Z,0.00
2023-02-04T03:51:37.717Z,1.00
2023-02-04T03:52:37.735Z,0.00
2023-02-04T03:53:37.730Z,0.00
2023-02-04T03:54:37.920Z,1.00
2023-02-04T03:55:38.034Z,0.00
2023-02-04T03:56:37.656Z,1.00
2023-02-04T03:57:37.595Z,1.00
2023-02-04T03:58:37.647Z,1.00
2023-02-04T03:59:38.566Z,1.00
2023-02-04T04:00:37.553Z,1.00
2023-02-04T04:01:37.653Z,1.00
2023-02-04T04:02:37.531Z,1.00
2023-02-04T04:03:37.602Z,1.00
2023-02-04T04:04:37.813Z,1.00
2023-02-04T04:05:37.504Z,1.00
2023-02-04T04:06:37.513Z,1.00
2023-02-04T04:07:37.537Z,1.00
2023-02-04T04:08:37.471Z,1.00
2023-02-04T04:09:37.539Z,1.00
2023-02-04T04:10:37.540Z,1.00
2023-02-04T04:11:37.447Z,1.00
2023-02-04T04:12:37.443Z,1.00
2023-02-04T04:13:37.458Z,1.00
2023-02-04T04:14:37.478Z,1.00
2023-02-04T04:15:37.653Z,1.00
2023-02-04T04:16:37.476Z,1.00
2023-02-04T04:17:37.334Z,1.00
2023-02-04T04:18:37.342Z,1.00
2023-02-04T04:19:37.352Z,1.00
2023-02-04T04:20:37.408Z,1.00
2023-02-04T04:21:37.406Z,1.00
2023-02-04T04:22:37.389Z,1.00
2023-02-04T04:23:37.275Z,1.00
2023-02-04T04:24:37.425Z,1.00
2023-02-04T04:25:37.297Z,1.00
2023-02-04T04:26:37.322Z,1.00
2023-02-04T04:27:37.341Z,1.00
2023-02-04T04:28:37.224Z,1.00
2023-02-04T04:29:37.221Z,1.00
2023-02-04T04:30:37.252Z,1.00
2023-02-04T04:31:37.351Z,1.00
2023-02-04T04:32:37.243Z,1.00
2023-02-04T04:33:37.521Z,1.00
2023-02-04T04:34:37.158Z,1.00
2023-02-04T04:35:37.146Z,1.00
2023-02-04T04:36:37.145Z,1.00
2023-02-04T04:37:37.171Z,1.00
2023-02-04T04:38:37.175Z,1.00
2023-02-04T04:39:37.523Z,1.00
2023-02-04T04:40:37.139Z,1.00
2023-02-04T04:41:37.128Z,1.00
2023-02-04T04:42:37.206Z,1.00
2023-02-04T04:43:37.074Z,1.00
2023-02-04T04:44:37.149Z,1.00
2023-02-04T04:45:37.082Z,1.00
2023-02-04T04:46:37.166Z,1.00
2023-02-04T04:47:37.039Z,1.00
2023-02-04T04:48:37.005Z,1.00
2023-02-04T04:49:37.011Z,1.00
2023-02-04T04:50:37.046Z,1.00
2023-02-04T04:51:36.993Z,1.00
2023-02-04T04:52:37.099Z,1.00
2023-02-04T04:53:36.930Z,1.00
2023-02-04T04:54:36.943Z,1.00
2023-02-04T04:55:36.948Z,1.00
2023-02-04T04:56:37.337Z,1.00
2023-02-04T04:57:36.851Z,1.00
2023-02-04T04:58:36.943Z,1.00
2023-02-04T04:59:36.932Z,1.00
2023-02-04T05:00:36.968Z,1.00
2023-02-04T05:01:36.887Z,1.00
2023-02-04T05:02:36.928Z,1.00
2023-02-04T05:03:36.854Z,1.00
2023-02-04T05:04:36.830Z,1.00
2023-02-04T05:05:36.910Z,1.00
2023-02-04T05:06:36.820Z,1.00
2023-02-04T05:07:36.825Z,1.00
2023-02-04T05:08:36.871Z,1.00
2023-02-04T05:09:36.810Z,1.00
2023-02-04T05:10:36.737Z,1.00
2023-02-04T05:11:36.754Z,1.00
2023-02-04T05:12:37.674Z,1.00
2023-02-04T05:13:36.763Z,1.00
2023-02-04T05:14:36.844Z,1.00
2023-02-04T05:15:36.752Z,1.00
2023-02-04T05:16:36.802Z,1.00
2023-02-04T05:17:36.685Z,1.00
2023-02-04T05:18:36.695Z,1.00
2023-02-04T05:19:36.758Z,1.00
2023-02-04T05:20:36.716Z,1.00
2023-02-04T05:21:36.697Z,1.00
2023-02-04T05:22:36.619Z,1.00
2023-02-04T05:23:36.620Z,1.00
2023-02-04T05:24:36.731Z,1.00
2023-02-04T05:25:36.708Z,1.00
2023-02-04T05:26:36.543Z,1.00
2023-02-04T05:27:36.630Z,1.00
2023-02-04T05:28:36.717Z,1.00
2023-02-04T05:29:36.661Z,1.00
2023-02-04T05:30:37.080Z,1.00
2023-02-04T05:31:36.695Z,1.00
2023-02-04T05:32:36.481Z,1.00
2023-02-04T05:33:36.576Z,1.00
2023-02-04T05:34:36.512Z,1.00
2023-02-04T05:35:36.594Z,1.00
2023-02-04T05:36:36.506Z,1.00
2023-02-04T05:37:36.511Z,1.00
2023-02-04T05:38:36.482Z,1.00
2023-02-04T05:39:36.511Z,1.00
2023-02-04T05:40:36.429Z,1.00
2023-02-04T05:41:38.151Z,1.00
2023-02-04T05:42:36.442Z,1.00
2023-02-04T05:43:37.231Z,1.00
2023-02-04T05:44:36.433Z,1.00
2023-02-04T05:45:36.511Z,1.00
2023-02-04T05:46:36.443Z,1.00
2023-02-04T05:47:36.454Z,1.00
2023-02-04T05:48:36.377Z,1.00
2023-02-04T05:49:36.451Z,1.00
2023-02-04T05:50:36.362Z,1.00
2023-02-04T05:51:36.298Z,1.00
2023-02-04T05:52:36.301Z,1.00
2023-02-04T05:53:36.309Z,1.00
2023-02-04T05:54:36.338Z,1.00
2023-02-04T05:55:36.372Z,1.00
2023-02-04T05:56:36.308Z,1.00
2023-02-04T05:57:36.324Z,1.00
2023-02-04T05:58:36.259Z,1.00
2023-02-04T05:59:36.630Z,1.00
2023-02-04T06:00:36.324Z,1.00
2023-02-04T06:01:36.223Z,1.00
2023-02-04T06:02:36.184Z,1.00
2023-02-04T06:03:36.250Z,1.00
2023-02-04T06:04:36.295Z,1.00
2023-02-04T06:05:36.657Z,1.00
2023-02-04T06:06:36.158Z,1.00
2023-02-04T06:07:36.214Z,1.00
2023-02-04T06:08:36.203Z,1.00
2023-02-04T06:09:36.125Z,1.00
2023-02-04T06:10:36.144Z,1.00
2023-02-04T06:11:36.143Z,1.00
2023-02-04T06:12:36.088Z,1.00
2023-02-04T06:13:36.169Z,1.00
2023-02-04T06:14:36.111Z,1.00
2023-02-04T06:15:36.063Z,1.00
2023-02-04T06:16:36.128Z,1.00
2023-02-04T06:17:36.799Z,1.00
2023-02-04T06:18:36.028Z,1.00
2023-02-04T06:19:36.091Z,1.00
2023-02-04T06:20:36.052Z,1.00
2023-02-04T06:21:36.303Z,1.00
2023-02-04T06:22:36.080Z,1.00
2023-02-04T06:23:36.117Z,1.00
2023-02-04T06:24:36.074Z,1.00
2023-02-04T06:25:36.041Z,1.00
2023-02-04T06:26:35.940Z,1.00
2023-02-04T06:27:35.941Z,1.00
2023-02-04T06:28:35.954Z,1.00
2023-02-04T06:29:35.978Z,1.00
2023-02-04T06:30:36.349Z,1.00
2023-02-04T06:31:36.063Z,1.00
2023-02-04T06:32:35.873Z,1.00
2023-02-04T06:33:35.940Z,1.00
2023-02-04T06:34:35.891Z,1.00
2023-02-04T06:35:35.862Z,1.00
2023-02-04T06:36:35.896Z,1.00
2023-02-04T06:37:35.902Z,1.00
2023-02-04T06:38:35.877Z,1.00
2023-02-04T06:39:35.816Z,1.00
2023-02-04T06:40:35.823Z,1.00
2023-02-04T06:41:35.795Z,1.00
2023-02-04T06:42:35.836Z,1.00
2023-02-04T06:43:35.820Z,1.00
2023-02-04T06:44:35.749Z,1.00
2023-02-04T06:45:35.770Z,1.00
2023-02-04T06:46:35.768Z,1.00
2023-02-04T06:47:35.941Z,1.00
2023-02-04T06:48:35.730Z,1.00
2023-02-04T06:49:36.797Z,1.00
2023-02-04T06:50:35.687Z,1.00
2023-02-04T06:51:35.755Z,1.00
2023-02-04T06:52:35.703Z,1.00
2023-02-04T06:53:35.668Z,1.00
2023-02-04T06:54:35.724Z,1.00
2023-02-04T06:55:35.720Z,1.00
2023-02-04T06:56:35.717Z,1.00
2023-02-04T06:57:36.045Z,1.00
2023-02-04T06:58:35.671Z,1.00
2023-02-04T06:59:35.611Z,1.00
2023-02-04T07:00:36.635Z,1.00
2023-02-04T07:01:35.661Z,1.00
2023-02-04T07:02:35.627Z,1.00
2023-02-04T07:03:36.246Z,1.00
2023-02-04T07:04:35.576Z,1.00
2023-02-04T07:05:35.588Z,1.00
2023-02-04T07:06:35.598Z,1.00
2023-02-04T07:07:35.598Z,1.00
2023-02-04T07:08:35.572Z,1.00
2023-02-04T07:09:35.598Z,1.00
2023-02-04T07:10:35.783Z,1.00
2023-02-04T07:11:35.524Z,1.00
2023-02-04T07:12:35.526Z,1.00
2023-02-04T07:13:35.434Z,1.00
2023-02-04T07:14:35.531Z,1.00
2023-02-04T07:15:35.780Z,1.00
2023-02-04T07:16:35.452Z,1.00
2023-02-04T07:17:35.443Z,1.00
2023-02-04T07:18:35.409Z,1.00
2023-02-04T07:19:35.372Z,1.00
2023-02-04T07:20:35.707Z,1.00
2023-02-04T07:21:35.370Z,1.00
2023-02-04T07:22:35.374Z,1.00
2023-02-04T07:23:35.402Z,1.00
2023-02-04T07:24:35.642Z,1.00
2023-02-04T07:25:35.349Z,1.00
2023-02-04T07:26:35.317Z,1.00
2023-02-04T07:27:35.405Z,1.00
2023-02-04T07:28:35.311Z,1.00
2023-02-04T07:29:35.274Z,1.00
2023-02-04T07:30:35.784Z,1.00
2023-02-04T07:31:35.377Z,1.00
2023-02-04T07:32:35.303Z,1.00
2023-02-04T07:33:35.351Z,1.00
2023-02-04T07:34:35.201Z,1.00
2023-02-04T07:35:35.263Z,1.00
2023-02-04T07:36:35.679Z,1.00
2023-02-04T07:37:35.169Z,1.00
2023-02-04T07:38:35.277Z,1.00
2023-02-04T07:39:35.501Z,1.00
2023-02-04T07:40:35.241Z,1.00
2023-02-04T07:41:35.140Z,1.00
2023-02-04T07:42:35.146Z,1.00
2023-02-04T07:43:35.104Z,1.00
2023-02-04T07:44:35.164Z,1.00
2023-02-04T07:45:35.124Z,1.00
2023-02-04T07:46:35.145Z,1.00
2023-02-04T07:47:35.086Z,1.00
2023-02-04T07:48:35.041Z,1.00
2023-02-04T07:49:35.096Z,1.00
2023-02-04T07:50:35.400Z,1.00
2023-02-04T07:51:35.067Z,1.00
2023-02-04T07:52:35.021Z,1.00
2023-02-04T07:53:35.018Z,1.00
2023-02-04T07:54:34.980Z,1.00
2023-02-04T07:55:34.980Z,1.00
2023-02-04T07:56:34.984Z,1.00
2023-02-04T07:57:34.941Z,1.00
2023-02-04T07:58:34.987Z,1.00
2023-02-04T07:59:34.962Z,1.00
2023-02-04T08:00:34.960Z,0.00
2023-02-04T08:01:35.243Z,0.00
2023-02-04T08:02:35.103Z,0.00
2023-02-04T08:03:36.554Z,0.00
2023-02-04T08:04:34.947Z,0.00
2023-02-04T08:05:35.107Z,0.00
2023-02-04T08:06:34.901Z,0.00
2023-02-04T08:07:34.900Z,0.00
2023-02-04T08:08:34.912Z,0.00
2023-02-04T08:09:34.871Z,0.00
2023-02-04T08:10:34.923Z,0.00
2023-02-04T08:11:34.885Z,0.00
2023-02-04T08:12:34.840Z,0.00
2023-02-04T08:13:34.853Z,0.00
2023-02-04T08:14:35.771Z,0.00
2023-02-04T08:15:34.917Z,0.00
2023-02-04T08:16:34.822Z,0.00
2023-02-04T08:17:34.813Z,0.00
2023-02-04T08:18:34.869Z,0.00
2023-02-04T08:19:34.775Z,0.00
2023-02-04T08:20:35.865Z,0.00
2023-02-04T08:21:34.799Z,0.00
2023-02-04T08:22:34.743Z,0.00
2023-02-04T08:23:34.749Z,0.00
2023-02-04T08:24:34.706Z,0.00
2023-02-04T08:25:34.768Z,0.00
2023-02-04T08:26:34.665Z,0.00
2023-02-04T08:27:34.671Z,0.00
2023-02-04T08:28:34.676Z,0.00
2023-02-04T08:29:34.644Z,0.00
2023-02-04T08:30:35.094Z,0.00
2023-02-04T08:31:34.652Z,0.00
2023-02-04T08:32:34.605Z,0.00
2023-02-04T08:33:34.616Z,0.00
2023-02-04T08:34:34.672Z,0.00
2023-02-04T08:35:34.590Z,0.00
2023-02-04T08:36:34.633Z,0.00
2023-02-04T08:37:34.541Z,0.00
2023-02-04T08:38:34.582Z,0.00
2023-02-04T08:39:34.520Z,1.00
2023-02-04T08:40:34.641Z,0.00
2023-02-04T08:41:34.463Z,1.00
2023-02-04T08:42:34.639Z,1.00
2023-02-04T08:43:34.440Z,1.00
2023-02-04T08:44:34.491Z,1.00
2023-02-04T08:45:34.495Z,0.00
2023-02-04T08:46:34.648Z,0.00
2023-02-04T08:47:34.467Z,0.00
2023-02-04T08:48:34.630Z,2.00
2023-02-04T08:49:34.427Z,1.00
2023-02-04T08:50:34.666Z,1.00
2023-02-04T08:51:34.549Z,0.00
2023-02-04T08:52:34.400Z,2.00
2023-02-04T08:53:34.415Z,1.00
2023-02-04T08:54:34.362Z,1.00
2023-02-04T08:55:34.428Z,1.00
2023-02-04T08:56:34.328Z,4.00
2023-02-04T08:57:34.335Z,3.00
2023-02-04T08:58:34.351Z,1.00
2023-02-04T08:59:34.356Z,1.00
2023-02-04T09:00:34.729Z,1.00
2023-02-04T09:01:34.322Z,2.00
2023-02-04T09:02:34.327Z,3.00
2023-02-04T09:03:34.231Z,3.00
2023-02-04T09:04:34.237Z,5.00
2023-02-04T09:05:34.244Z,8.00
2023-02-04T09:06:34.274Z,5.00
2023-02-04T09:07:34.289Z,6.00
2023-02-04T09:08:34.227Z,5.00
2023-02-04T09:09:34.219Z,3.00
2023-02-04T09:10:34.639Z,4.00
2023-02-04T09:11:34.190Z,5.00
2023-02-04T09:12:34.623Z,8.00
2023-02-04T09:13:34.242Z,6.00
2023-02-04T09:14:34.124Z,6.00
2023-02-04T09:15:34.136Z,6.00
2023-02-04T09:16:34.208Z,8.00
2023-02-04T09:17:34.109Z,9.00
2023-02-04T09:18:34.152Z,8.00
2023-02-04T09:19:34.211Z,8.00
2023-02-04T09:20:34.325Z,10.00
2023-02-04T09:21:34.130Z,12.00
2023-02-04T09:22:34.090Z,12.00
2023-02-04T09:23:34.093Z,12.00
2023-02-04T09:24:34.094Z,12.00
2023-02-04T09:25:34.110Z,11.00
2023-02-04T09:26:34.007Z,9.00
2023-02-04T09:27:34.264Z,13.00
2023-02-04T09:28:34.165Z,13.00
2023-02-04T09:29:34.087Z,11.00
2023-02-04T09:30:34.519Z,9.00
2023-02-04T09:31:34.121Z,15.00
2023-02-04T09:32:33.988Z,14.00
2023-02-04T09:33:33.991Z,14.00
2023-02-04T09:34:34.016Z,11.00
2023-02-04T09:35:34.012Z,12.00
2023-02-04T09:36:34.014Z,11.00
2023-02-04T09:37:33.923Z,9.00
2023-02-04T09:38:33.928Z,12.00
2023-02-04T09:39:33.904Z,16.00
2023-02-04T09:40:34.046Z,16.00
2023-02-04T09:41:34.255Z,19.00
2023-02-04T09:42:33.953Z,21.00
2023-02-04T09:43:33.864Z,21.00
2023-02-04T09:44:33.897Z,28.00
2023-02-04T09:45:34.302Z,21.00
2023-02-04T09:46:33.883Z,23.00
2023-02-04T09:47:33.892Z,22.00
2023-02-04T09:48:33.796Z,23.00
2023-02-04T09:49:33.817Z,23.00
2023-02-04T09:50:34.340Z,20.00
2023-02-04T09:51:33.814Z,25.00
2023-02-04T09:52:33.776Z,29.00
2023-02-04T09:53:33.753Z,30.00
2023-02-04T09:54:33.675Z,29.00
2023-02-04T09:55:33.699Z,29.00
2023-02-04T09:56:33.691Z,30.00
2023-02-04T09:57:33.695Z,27.00
2023-02-04T09:58:33.708Z,26.00
2023-02-04T09:59:34.630Z,30.00
2023-02-04T10:00:33.887Z,31.00
2023-02-04T10:01:33.657Z,31.00
2023-02-04T10:02:33.632Z,30.00
2023-02-04T10:03:33.707Z,32.00
2023-02-04T10:04:34.295Z,30.00
2023-02-04T10:05:34.309Z,31.00
2023-02-04T10:06:33.653Z,35.00
2023-02-04T10:07:33.590Z,35.00
2023-02-04T10:08:33.601Z,39.00
2023-02-04T10:09:33.631Z,38.00
2023-02-04T10:10:33.943Z,40.00
2023-02-04T10:11:33.613Z,43.00
2023-02-04T10:12:33.522Z,41.00
2023-02-04T10:13:33.485Z,42.00
2023-02-04T10:14:33.740Z,37.00
2023-02-04T10:15:33.540Z,34.00
2023-02-04T10:16:33.595Z,35.00
2023-02-04T10:17:33.555Z,33.00
2023-02-04T10:18:33.425Z,34.00
2023-02-04T10:19:33.660Z,31.00
2023-02-04T10:20:33.879Z,35.00
2023-02-04T10:21:33.482Z,34.00
2023-02-04T10:22:33.485Z,36.00
2023-02-04T10:23:33.388Z,38.00
2023-02-04T10:24:33.390Z,38.00
2023-02-04T10:25:33.402Z,38.00
2023-02-04T10:26:33.710Z,38.00
2023-02-04T10:27:33.420Z,38.00
2023-02-04T10:28:33.401Z,35.00
2023-02-04T10:29:33.945Z,34.00
2023-02-04T10:30:33.749Z,42.00
2023-02-04T10:31:33.508Z,44.00
2023-02-04T10:32:33.356Z,28.00
2023-02-04T10:33:33.357Z,32.00
2023-02-04T10:34:33.356Z,39.00
2023-02-04T10:35:33.268Z,39.00
2023-02-04T10:36:33.265Z,37.00
2023-02-04T10:37:33.286Z,37.00
2023-02-04T10:38:33.295Z,43.00
2023-02-04T10:39:33.289Z,49.00
2023-02-04T10:40:33.628Z,52.00
2023-02-04T10:41:33.154Z,51.00
2023-02-04T10:42:33.217Z,52.00
2023-02-04T10:43:33.165Z,34.00
2023-02-04T10:44:33.260Z,32.00
2023-02-04T10:45:33.190Z,42.00
2023-02-04T10:46:33.188Z,56.00
2023-02-04T10:47:33.094Z,48.00
2023-02-04T10:48:33.143Z,57.00
2023-02-04T10:49:33.110Z,61.00
2023-02-04T10:50:33.446Z,88.00
2023-02-04T10:51:33.116Z,66.00
2023-02-04T10:52:33.094Z,53.00
2023-02-04T10:53:33.032Z,67.00
2023-02-04T10:54:33.055Z,86.00
2023-02-04T10:55:33.660Z,34.00
2023-02-04T10:56:33.868Z,79.00
2023-02-04T10:57:33.017Z,96.00
2023-02-04T10:58:33.048Z,61.00
2023-02-04T10:59:32.979Z,68.00
2023-02-04T11:00:33.393Z,60.00
2023-02-04T11:01:33.070Z,89.00
2023-02-04T11:02:32.987Z,54.00
2023-02-04T11:03:32.967Z,92.00
2023-02-04T11:04:32.949Z,33.00
2023-02-04T11:05:32.905Z,65.00
2023-02-04T11:06:32.896Z,101.00
2023-02-04T11:07:33.538Z,83.00
2023-02-04T11:08:32.973Z,55.00
2023-02-04T11:09:32.889Z,70.00
2023-02-04T11:10:33.291Z,50.00
2023-02-04T11:11:32.888Z,45.00
2023-02-04T11:12:33.927Z,65.00
2023-02-04T11:13:32.902Z,52.00
2023-02-04T11:14:32.860Z,65.00
2023-02-04T11:15:32.898Z,46.00
2023-02-04T11:16:32.844Z,32.00
2023-02-04T11:17:32.781Z,68.00
2023-02-04T11:18:32.801Z,77.00
2023-02-04T11:19:32.804Z,20.00
2023-02-04T11:20:33.076Z,46.00
2023-02-04T11:21:32.950Z,69.00
2023-02-04T11:22:32.784Z,40.00
2023-02-04T11:23:32.750Z,43.00
2023-02-04T11:24:32.722Z,42.00
2023-02-04T11:25:33.151Z,24.00
2023-02-04T11:26:32.738Z,32.00
2023-02-04T11:27:32.741Z,65.00
2023-02-04T11:28:32.651Z,20.00
2023-02-04T11:29:32.718Z,37.00
2023-02-04T11:30:32.745Z,64.00
2023-02-04T11:31:32.826Z,23.00
2023-02-04T11:32:32.626Z,44.00
2023-02-04T11:33:32.682Z,93.00
2023-02-04T11:34:32.588Z,66.00
2023-02-04T11:35:32.948Z,43.00
2023-02-04T11:36:32.598Z,28.00
2023-02-04T11:37:32.603Z,68.00
2023-02-04T11:38:32.659Z,86.00
2023-02-04T11:39:32.617Z,29.00
2023-02-04T11:40:33.391Z,39.00
2023-02-04T11:41:32.578Z,74.00
2023-02-04T11:42:32.579Z,35.00
2023-02-04T11:43:32.545Z,111.00
2023-02-04T11:44:32.502Z,68.00
2023-02-04T11:45:32.996Z,65.00
2023-02-04T11:46:32.543Z,55.00
2023-02-04T11:47:32.491Z,54.00
2023-02-04T11:48:32.629Z,44.00
2023-02-04T11:49:32.496Z,30.00
2023-02-04T11:50:32.447Z,41.00
2023-02-04T11:51:32.396Z,107.00
2023-02-04T11:52:32.395Z,88.00
2023-02-04T11:53:32.398Z,154.00
2023-02-04T11:54:32.362Z,148.00
2023-02-04T11:55:33.072Z,56.00
2023-02-04T11:56:32.379Z,90.00
2023-02-04T11:57:32.324Z,91.00
2023-02-04T11:58:32.332Z,97.00
2023-02-04T11:59:32.349Z,114.00
2023-02-04T12:00:32.438Z,104.00
2023-02-04T12:01:32.359Z,133.00
2023-02-04T12:02:32.442Z,36.00
2023-02-04T12:03:32.309Z,83.00
2023-02-04T12:04:32.293Z,67.00
2023-02-04T12:05:32.543Z,65.00
2023-02-04T12:06:32.294Z,56.00
2023-02-04T12:07:32.327Z,162.00
2023-02-04T12:08:32.329Z,158.00
2023-02-04T12:09:32.218Z,125.00
2023-02-04T12:10:32.228Z,109.00
2023-02-04T12:11:32.235Z,60.00
2023-02-04T12:12:32.244Z,109.00
2023-02-04T12:13:32.193Z,144.00
2023-02-04T12:14:32.265Z,180.00
2023-02-04T12:15:32.474Z,97.00
2023-02-04T12:16:32.180Z,203.00
2023-02-04T12:17:32.189Z,126.00
2023-02-04T12:18:32.237Z,202.00
2023-02-04T12:19:32.190Z,169.00
2023-02-04T12:20:32.241Z,90.00
2023-02-04T12:21:32.107Z,58.00
2023-02-04T12:22:32.144Z,94.00
2023-02-04T12:23:32.054Z,144.00
2023-02-04T12:24:32.067Z,165.00
2023-02-04T12:25:32.458Z,113.00
2023-02-04T12:26:32.079Z,73.00
2023-02-04T12:27:32.036Z,61.00
2023-02-04T12:28:32.042Z,50.00
2023-02-04T12:29:31.993Z,126.00
2023-02-04T12:30:32.003Z,114.00
2023-02-04T12:31:32.156Z,73.00
2023-02-04T12:32:32.010Z,117.00
2023-02-04T12:33:31.985Z,174.00
2023-02-04T12:34:32.082Z,136.00
2023-02-04T12:35:32.331Z,81.00
2023-02-04T12:36:31.992Z,217.00
2023-02-04T12:37:32.003Z,138.00
2023-02-04T12:38:31.913Z,53.00
2023-02-04T12:39:32.024Z,126.00
2023-02-04T12:40:31.917Z,99.00
2023-02-04T12:41:31.832Z,74.00
2023-02-04T12:42:31.876Z,98.00
2023-02-04T12:43:31.887Z,218.00
2023-02-04T12:44:31.893Z,295.00
2023-02-04T12:45:32.419Z,98.00
2023-02-04T12:46:31.938Z,247.00
2023-02-04T12:47:31.856Z,227.00
2023-02-04T12:48:31.916Z,215.00
2023-02-04T12:49:31.780Z,277.00
2023-02-04T12:50:31.874Z,131.00
2023-02-04T12:51:31.879Z,84.00
2023-02-04T12:52:31.783Z,113.00
2023-02-04T12:53:31.786Z,303.00
2023-02-04T12:54:31.800Z,265.00
2023-02-04T12:55:32.200Z,277.00
2023-02-04T12:56:31.748Z,118.00
2023-02-04T12:57:32.674Z,105.00
2023-02-04T12:58:31.920Z,324.00
2023-02-04T12:59:31.728Z,197.00
2023-02-04T13:00:31.992Z,127.00
2023-02-04T13:01:31.677Z,554.00
2023-02-04T13:02:31.690Z,612.00
2023-02-04T13:03:31.660Z,239.00
2023-02-04T13:04:31.654Z,85.00
2023-02-04T13:05:31.912Z,216.00
2023-02-04T13:06:31.676Z,180.00
2023-02-04T13:07:31.674Z,203.00
2023-02-04T13:08:31.640Z,218.00
2023-02-04T13:09:31.691Z,219.00